sensor_id;sensor_type;location;lat;lon;timestamp;pressure;altitude;pressure_sealevel;temperature;humidity
37066;BME280;22981;43.080;25.550;2023-04-07T00:01:02;99396.12;;;6.32;52.42
37066;BME280;22981;43.080;25.550;2023-04-07T00:03:30;99392.00;;;6.29;52.32
37066;BME280;22981;43.080;25.550;2023-04-07T00:05:57;99396.50;;;6.28;52.15
37066;BME280;22981;43.080;25.550;2023-04-07T00:08:25;99395.98;;;6.29;52.02
37066;BME280;22981;43.080;25.550;2023-04-07T00:10:52;99402.32;;;6.28;51.93
37066;BME280;22981;43.080;25.550;2023-04-07T00:13:20;99389.03;;;6.28;51.94
37066;BME280;22981;43.080;25.550;2023-04-07T00:15:47;99396.50;;;6.28;52.03
37066;BME280;22981;43.080;25.550;2023-04-07T00:18:15;99389.84;;;6.28;52.00
37066;BME280;22981;43.080;25.550;2023-04-07T00:20:43;99394.34;;;6.28;51.94
37066;BME280;22981;43.080;25.550;2023-04-07T00:23:10;99384.22;;;6.27;52.00
37066;BME280;22981;43.080;25.550;2023-04-07T00:25:38;99391.89;;;6.26;52.05
37066;BME280;22981;43.080;25.550;2023-04-07T00:28:05;99392.91;;;6.25;51.99
37066;BME280;22981;43.080;25.550;2023-04-07T00:30:33;99387.59;;;6.25;52.03
37066;BME280;22981;43.080;25.550;2023-04-07T00:33:00;99384.09;;;6.25;52.05
37066;BME280;22981;43.080;25.550;2023-04-07T00:35:28;99386.58;;;6.26;52.03
37066;BME280;22981;43.080;25.550;2023-04-07T00:37:56;99389.23;;;6.26;52.11
37066;BME280;22981;43.080;25.550;2023-04-07T00:40:23;99386.58;;;6.26;52.13
37066;BME280;22981;43.080;25.550;2023-04-07T00:42:51;99389.75;;;6.26;52.16
37066;BME280;22981;43.080;25.550;2023-04-07T00:45:19;99380.95;;;6.25;52.16
37066;BME280;22981;43.080;25.550;2023-04-07T00:47:46;99381.94;;;6.24;52.13
37066;BME280;22981;43.080;25.550;2023-04-07T00:50:14;99384.81;;;6.23;52.14
37066;BME280;22981;43.080;25.550;2023-04-07T00:52:42;99383.98;;;6.22;52.21
37066;BME280;22981;43.080;25.550;2023-04-07T00:55:09;99381.33;;;6.22;52.28
37066;BME280;22981;43.080;25.550;2023-04-07T00:57:37;99376.91;;;6.19;52.41
37066;BME280;22981;43.080;25.550;2023-04-07T01:00:05;99381.91;;;6.18;52.40
37066;BME280;22981;43.080;25.550;2023-04-07T01:02:41;99380.45;;;6.15;52.36
37066;BME280;22981;43.080;25.550;2023-04-07T01:05:18;99380.66;;;6.14;52.29
37066;BME280;22981;43.080;25.550;2023-04-07T01:08:01;99382.49;;;6.13;52.25
37066;BME280;22981;43.080;25.550;2023-04-07T01:10:50;99381.67;;;6.13;52.32
37066;BME280;22981;43.080;25.550;2023-04-07T01:13:22;99379.83;;;6.13;52.34
37066;BME280;22981;43.080;25.550;2023-04-07T01:15:52;99381.84;;;6.11;52.35
37066;BME280;22981;43.080;25.550;2023-04-07T01:18:25;99371.42;;;6.10;52.40
37066;BME280;22981;43.080;25.550;2023-04-07T01:20:55;99367.13;;;6.09;52.42
37066;BME280;22981;43.080;25.550;2023-04-07T01:28:40;99372.00;;;6.05;52.22
37066;BME280;22981;43.080;25.550;2023-04-07T01:31:08;99369.52;;;6.03;52.17
37066;BME280;22981;43.080;25.550;2023-04-07T01:33:37;99365.22;;;6.02;52.23
37066;BME280;22981;43.080;25.550;2023-04-07T01:36:07;99366.24;;;6.01;52.26
37066;BME280;22981;43.080;25.550;2023-04-07T01:38:37;99371.77;;;6.00;52.40
37066;BME280;22981;43.080;25.550;2023-04-07T01:41:05;99368.59;;;6.00;52.49
37066;BME280;22981;43.080;25.550;2023-04-07T01:43:36;99362.63;;;5.98;52.53
37066;BME280;22981;43.080;25.550;2023-04-07T01:46:05;99364.84;;;5.95;52.62
37066;BME280;22981;43.080;25.550;2023-04-07T01:48:34;99363.72;;;5.93;52.69
37066;BME280;22981;43.080;25.550;2023-04-07T01:51:04;99363.55;;;5.91;52.77
37066;BME280;22981;43.080;25.550;2023-04-07T01:53:33;99366.11;;;5.88;52.92
37066;BME280;22981;43.080;25.550;2023-04-07T01:56:03;99358.51;;;5.85;53.11
37066;BME280;22981;43.080;25.550;2023-04-07T01:58:31;99361.67;;;5.85;53.29
37066;BME280;22981;43.080;25.550;2023-04-07T02:00:59;99358.06;;;5.82;53.47
37066;BME280;22981;43.080;25.550;2023-04-07T02:03:32;99361.61;;;5.78;53.68
37066;BME280;22981;43.080;25.550;2023-04-07T02:06:03;99355.88;;;5.74;53.90
37066;BME280;22981;43.080;25.550;2023-04-07T02:08:31;99358.09;;;5.71;54.20
37066;BME280;22981;43.080;25.550;2023-04-07T02:11:00;99354.98;;;5.67;54.36
37066;BME280;22981;43.080;25.550;2023-04-07T02:13:29;99354.03;;;5.64;54.58
37066;BME280;22981;43.080;25.550;2023-04-07T02:15:57;99358.08;;;5.60;54.64
37066;BME280;22981;43.080;25.550;2023-04-07T02:18:27;99356.88;;;5.52;54.78
37066;BME280;22981;43.080;25.550;2023-04-07T02:20:58;99362.59;;;5.49;54.90
37066;BME280;22981;43.080;25.550;2023-04-07T02:23:27;99364.59;;;5.47;54.89
37066;BME280;22981;43.080;25.550;2023-04-07T02:25:57;99358.35;;;5.44;54.97
37066;BME280;22981;43.080;25.550;2023-04-07T02:28:25;99349.73;;;5.42;55.04
37066;BME280;22981;43.080;25.550;2023-04-07T02:30:53;99356.74;;;5.39;55.17
37066;BME280;22981;43.080;25.550;2023-04-07T02:33:20;99358.13;;;5.35;55.32
37066;BME280;22981;43.080;25.550;2023-04-07T02:35:48;99358.13;;;5.35;55.69
37066;BME280;22981;43.080;25.550;2023-04-07T02:38:15;99360.02;;;5.30;55.91
37066;BME280;22981;43.080;25.550;2023-04-07T02:40:43;99358.19;;;5.20;56.10
37066;BME280;22981;43.080;25.550;2023-04-07T02:43:10;99358.81;;;5.11;56.45
37066;BME280;22981;43.080;25.550;2023-04-07T02:45:38;99360.38;;;5.06;56.73
37066;BME280;22981;43.080;25.550;2023-04-07T02:48:06;99363.57;;;5.01;56.98
37066;BME280;22981;43.080;25.550;2023-04-07T02:50:33;99359.33;;;4.96;57.23
37066;BME280;22981;43.080;25.550;2023-04-07T02:53:01;99369.48;;;4.92;57.46
37066;BME280;22981;43.080;25.550;2023-04-07T02:55:28;99364.58;;;4.89;57.66
37066;BME280;22981;43.080;25.550;2023-04-07T02:57:56;99362.28;;;4.86;57.84
37066;BME280;22981;43.080;25.550;2023-04-07T03:00:24;99364.48;;;4.83;57.97
37066;BME280;22981;43.080;25.550;2023-04-07T03:02:52;99368.50;;;4.78;58.08
37066;BME280;22981;43.080;25.550;2023-04-07T03:05:19;99369.37;;;4.75;58.19
37066;BME280;22981;43.080;25.550;2023-04-07T03:07:47;99370.74;;;4.71;58.36
37066;BME280;22981;43.080;25.550;2023-04-07T03:10:14;99376.44;;;4.68;58.47
37066;BME280;22981;43.080;25.550;2023-04-07T03:12:42;99376.80;;;4.65;58.59
37066;BME280;22981;43.080;25.550;2023-04-07T03:15:10;99376.17;;;4.63;58.67
37066;BME280;22981;43.080;25.550;2023-04-07T03:17:38;99375.70;;;4.59;58.70
37066;BME280;22981;43.080;25.550;2023-04-07T03:20:06;99384.64;;;4.58;58.81
37066;BME280;22981;43.080;25.550;2023-04-07T03:22:34;99379.73;;;4.55;58.96
37066;BME280;22981;43.080;25.550;2023-04-07T03:25:01;99375.29;;;4.51;59.18
37066;BME280;22981;43.080;25.550;2023-04-07T03:27:29;99379.11;;;4.49;59.38
37066;BME280;22981;43.080;25.550;2023-04-07T03:29:57;99378.69;;;4.45;59.60
37066;BME280;22981;43.080;25.550;2023-04-07T03:32:24;99377.88;;;4.41;59.76
37066;BME280;22981;43.080;25.550;2023-04-07T03:34:52;99379.12;;;4.34;60.00
37066;BME280;22981;43.080;25.550;2023-04-07T03:37:19;99379.35;;;4.29;60.26
37066;BME280;22981;43.080;25.550;2023-04-07T03:39:47;99377.25;;;4.24;60.45
37066;BME280;22981;43.080;25.550;2023-04-07T03:42:14;99386.88;;;4.21;60.62
37066;BME280;22981;43.080;25.550;2023-04-07T03:44:42;99391.70;;;4.17;60.77
37066;BME280;22981;43.080;25.550;2023-04-07T03:47:09;99388.59;;;4.14;60.90
37066;BME280;22981;43.080;25.550;2023-04-07T03:49:37;99390.77;;;4.10;60.97
37066;BME280;22981;43.080;25.550;2023-04-07T03:52:05;99399.22;;;4.10;60.93
37066;BME280;22981;43.080;25.550;2023-04-07T03:54:32;99406.53;;;4.08;60.91
37066;BME280;22981;43.080;25.550;2023-04-07T03:57:01;99407.20;;;4.06;60.92
37066;BME280;22981;43.080;25.550;2023-04-07T03:59:28;99405.38;;;4.06;60.88
37066;BME280;22981;43.080;25.550;2023-04-07T04:01:56;99402.59;;;4.04;60.84
37066;BME280;22981;43.080;25.550;2023-04-07T04:04:23;99404.08;;;4.02;60.84
37066;BME280;22981;43.080;25.550;2023-04-07T04:06:51;99414.55;;;3.99;60.85
37066;BME280;22981;43.080;25.550;2023-04-07T04:09:18;99420.70;;;3.96;60.87
37066;BME280;22981;43.080;25.550;2023-04-07T04:11:46;99417.23;;;3.95;60.99
37066;BME280;22981;43.080;25.550;2023-04-07T04:14:13;99414.27;;;3.94;61.08
37066;BME280;22981;43.080;25.550;2023-04-07T04:16:41;99418.71;;;3.94;61.01
37066;BME280;22981;43.080;25.550;2023-04-07T04:19:09;99419.09;;;3.91;61.17
37066;BME280;22981;43.080;25.550;2023-04-07T04:21:36;99425.84;;;3.93;61.33
37066;BME280;22981;43.080;25.550;2023-04-07T04:24:04;99423.16;;;3.97;61.35
37066;BME280;22981;43.080;25.550;2023-04-07T04:26:32;99426.16;;;3.98;61.42
37066;BME280;22981;43.080;25.550;2023-04-07T04:28:59;99428.77;;;4.03;61.53
37066;BME280;22981;43.080;25.550;2023-04-07T04:31:28;99434.52;;;4.06;61.67
37066;BME280;22981;43.080;25.550;2023-04-07T04:33:56;99429.18;;;4.10;61.79
37066;BME280;22981;43.080;25.550;2023-04-07T04:36:23;99432.49;;;4.12;61.93
37066;BME280;22981;43.080;25.550;2023-04-07T04:38:51;99427.00;;;4.14;62.04
37066;BME280;22981;43.080;25.550;2023-04-07T04:41:19;99430.98;;;4.14;62.24
37066;BME280;22981;43.080;25.550;2023-04-07T04:43:46;99441.77;;;4.12;62.41
37066;BME280;22981;43.080;25.550;2023-04-07T04:46:14;99443.88;;;4.17;62.54
37066;BME280;22981;43.080;25.550;2023-04-07T04:48:41;99441.39;;;4.15;62.64
37066;BME280;22981;43.080;25.550;2023-04-07T04:51:09;99437.37;;;4.19;62.78
37066;BME280;22981;43.080;25.550;2023-04-07T04:53:36;99440.88;;;4.20;62.92
37066;BME280;22981;43.080;25.550;2023-04-07T04:56:04;99445.26;;;4.27;63.32
37066;BME280;22981;43.080;25.550;2023-04-07T04:58:32;99446.59;;;4.46;63.66
37066;BME280;22981;43.080;25.550;2023-04-07T05:00:59;99447.49;;;4.53;63.46
37066;BME280;22981;43.080;25.550;2023-04-07T05:03:29;99451.47;;;4.53;63.51
37066;BME280;22981;43.080;25.550;2023-04-07T05:05:57;99448.78;;;4.58;63.49
37066;BME280;22981;43.080;25.550;2023-04-07T05:08:25;99455.21;;;4.63;63.45
37066;BME280;22981;43.080;25.550;2023-04-07T05:10:52;99458.80;;;4.66;63.47
37066;BME280;22981;43.080;25.550;2023-04-07T05:13:21;99460.78;;;4.68;63.50
37066;BME280;22981;43.080;25.550;2023-04-07T05:15:48;99453.10;;;4.73;63.51
37066;BME280;22981;43.080;25.550;2023-04-07T05:18:16;99461.02;;;4.77;63.56
37066;BME280;22981;43.080;25.550;2023-04-07T05:20:44;99460.82;;;4.79;63.51
37066;BME280;22981;43.080;25.550;2023-04-07T05:23:11;99461.21;;;4.76;63.59
37066;BME280;22981;43.080;25.550;2023-04-07T05:25:39;99466.32;;;4.77;63.69
37066;BME280;22981;43.080;25.550;2023-04-07T05:28:07;99470.45;;;4.80;63.71
37066;BME280;22981;43.080;25.550;2023-04-07T05:30:34;99465.11;;;4.84;63.73
37066;BME280;22981;43.080;25.550;2023-04-07T05:33:02;99474.16;;;4.90;63.65
37066;BME280;22981;43.080;25.550;2023-04-07T05:35:30;99470.80;;;4.92;63.69
37066;BME280;22981;43.080;25.550;2023-04-07T05:37:57;99473.29;;;4.93;63.74
37066;BME280;22981;43.080;25.550;2023-04-07T05:40:25;99479.12;;;5.03;63.87
37066;BME280;22981;43.080;25.550;2023-04-07T05:42:52;99477.09;;;5.10;63.65
37066;BME280;22981;43.080;25.550;2023-04-07T05:45:20;99476.19;;;5.13;63.49
37066;BME280;22981;43.080;25.550;2023-04-07T05:47:48;99480.53;;;5.25;63.36
37066;BME280;22981;43.080;25.550;2023-04-07T05:50:16;99474.63;;;5.34;63.02
37066;BME280;22981;43.080;25.550;2023-04-07T05:52:44;99476.55;;;5.40;62.68
37066;BME280;22981;43.080;25.550;2023-04-07T05:55:11;99475.02;;;5.41;62.41
37066;BME280;22981;43.080;25.550;2023-04-07T05:57:39;99467.83;;;5.46;62.04
37066;BME280;22981;43.080;25.550;2023-04-07T06:00:08;99476.51;;;5.55;61.52
37066;BME280;22981;43.080;25.550;2023-04-07T06:02:36;99471.55;;;5.66;61.37
37066;BME280;22981;43.080;25.550;2023-04-07T06:05:05;99473.31;;;5.81;60.88
37066;BME280;22981;43.080;25.550;2023-04-07T06:07:33;99479.70;;;6.01;60.51
37066;BME280;22981;43.080;25.550;2023-04-07T06:10:01;99472.09;;;6.19;60.25
37066;BME280;22981;43.080;25.550;2023-04-07T06:12:28;99471.38;;;6.43;59.86
37066;BME280;22981;43.080;25.550;2023-04-07T06:14:56;99468.98;;;6.65;59.45
37066;BME280;22981;43.080;25.550;2023-04-07T06:17:24;99468.35;;;6.81;58.93
37066;BME280;22981;43.080;25.550;2023-04-07T06:19:51;99465.36;;;6.90;58.64
37066;BME280;22981;43.080;25.550;2023-04-07T06:22:19;99471.06;;;7.05;58.45
37066;BME280;22981;43.080;25.550;2023-04-07T06:24:46;99470.23;;;7.21;58.21
37066;BME280;22981;43.080;25.550;2023-04-07T06:27:14;99470.41;;;7.37;57.62
37066;BME280;22981;43.080;25.550;2023-04-07T06:29:42;99471.49;;;7.49;57.22
37066;BME280;22981;43.080;25.550;2023-04-07T06:32:10;99472.02;;;7.62;57.23
37066;BME280;22981;43.080;25.550;2023-04-07T06:34:40;99473.72;;;7.76;56.72
37066;BME280;22981;43.080;25.550;2023-04-07T06:37:07;99475.31;;;8.01;56.18
37066;BME280;22981;43.080;25.550;2023-04-07T06:39:35;99470.62;;;8.23;55.31
37066;BME280;22981;43.080;25.550;2023-04-07T06:42:03;99465.22;;;8.41;54.19
37066;BME280;22981;43.080;25.550;2023-04-07T06:44:31;99467.06;;;8.53;53.29
37066;BME280;22981;43.080;25.550;2023-04-07T06:46:59;99467.65;;;8.69;52.23
37066;BME280;22981;43.080;25.550;2023-04-07T06:49:26;99461.28;;;8.76;50.74
37066;BME280;22981;43.080;25.550;2023-04-07T06:51:54;99468.96;;;8.89;50.29
37066;BME280;22981;43.080;25.550;2023-04-07T06:54:21;99472.53;;;9.05;49.88
37066;BME280;22981;43.080;25.550;2023-04-07T06:56:49;99472.48;;;9.25;48.98
37066;BME280;22981;43.080;25.550;2023-04-07T06:59:17;99476.75;;;9.33;48.52
37066;BME280;22981;43.080;25.550;2023-04-07T07:01:45;99475.69;;;9.47;47.94
37066;BME280;22981;43.080;25.550;2023-04-07T07:04:13;99476.95;;;9.60;47.08
37066;BME280;22981;43.080;25.550;2023-04-07T07:06:40;99473.41;;;9.73;46.69
37066;BME280;22981;43.080;25.550;2023-04-07T07:09:08;99468.27;;;9.87;46.21
37066;BME280;22981;43.080;25.550;2023-04-07T07:11:35;99471.38;;;10.00;45.81
37066;BME280;22981;43.080;25.550;2023-04-07T07:14:03;99479.25;;;10.11;45.27
37066;BME280;22981;43.080;25.550;2023-04-07T07:16:31;99478.38;;;10.17;44.03
37066;BME280;22981;43.080;25.550;2023-04-07T07:18:58;99476.28;;;10.19;43.63
37066;BME280;22981;43.080;25.550;2023-04-07T07:21:26;99481.41;;;10.27;43.44
37066;BME280;22981;43.080;25.550;2023-04-07T07:23:53;99486.23;;;10.27;43.70
37066;BME280;22981;43.080;25.550;2023-04-07T07:26:21;99486.98;;;10.25;43.71
37066;BME280;22981;43.080;25.550;2023-04-07T07:28:49;99489.23;;;10.28;43.73
37066;BME280;22981;43.080;25.550;2023-04-07T07:31:16;99479.90;;;10.38;42.88
37066;BME280;22981;43.080;25.550;2023-04-07T07:33:44;99481.17;;;10.44;42.62
37066;BME280;22981;43.080;25.550;2023-04-07T07:36:13;99470.73;;;10.61;42.65
37066;BME280;22981;43.080;25.550;2023-04-07T07:38:41;99476.61;;;10.61;42.33
37066;BME280;22981;43.080;25.550;2023-04-07T07:41:08;99484.89;;;10.68;42.00
37066;BME280;22981;43.080;25.550;2023-04-07T07:43:36;99481.50;;;10.80;41.19
37066;BME280;22981;43.080;25.550;2023-04-07T07:46:03;99474.82;;;10.89;40.81
37066;BME280;22981;43.080;25.550;2023-04-07T07:48:31;99482.14;;;11.09;41.20
37066;BME280;22981;43.080;25.550;2023-04-07T07:50:59;99482.72;;;11.29;40.70
37066;BME280;22981;43.080;25.550;2023-04-07T07:53:26;99481.06;;;11.47;40.28
37066;BME280;22981;43.080;25.550;2023-04-07T07:55:54;99477.53;;;11.65;40.04
37066;BME280;22981;43.080;25.550;2023-04-07T07:58:21;99486.89;;;11.53;39.79
37066;BME280;22981;43.080;25.550;2023-04-07T08:00:49;99482.66;;;11.36;39.75
37066;BME280;22981;43.080;25.550;2023-04-07T08:03:16;99487.17;;;11.17;39.75
37066;BME280;22981;43.080;25.550;2023-04-07T08:05:45;99488.84;;;11.18;39.52
37066;BME280;22981;43.080;25.550;2023-04-07T08:08:13;99487.79;;;11.19;39.58
37066;BME280;22981;43.080;25.550;2023-04-07T08:10:41;99483.48;;;11.18;39.09
37066;BME280;22981;43.080;25.550;2023-04-07T08:13:08;99483.70;;;11.35;39.09
37066;BME280;22981;43.080;25.550;2023-04-07T08:15:36;99477.48;;;11.62;38.69
37066;BME280;22981;43.080;25.550;2023-04-07T08:18:03;99476.47;;;11.93;38.43
37066;BME280;22981;43.080;25.550;2023-04-07T08:20:31;99477.42;;;12.20;38.68
37066;BME280;22981;43.080;25.550;2023-04-07T08:23:00;99479.19;;;12.47;38.57
37066;BME280;22981;43.080;25.550;2023-04-07T08:25:28;99478.84;;;12.67;38.42
37066;BME280;22981;43.080;25.550;2023-04-07T08:27:56;99475.59;;;12.76;37.49
37066;BME280;22981;43.080;25.550;2023-04-07T08:30:23;99470.37;;;12.96;37.50
37066;BME280;22981;43.080;25.550;2023-04-07T08:32:51;99464.87;;;13.26;37.66
37066;BME280;22981;43.080;25.550;2023-04-07T08:35:18;99472.64;;;13.51;37.47
37066;BME280;22981;43.080;25.550;2023-04-07T08:37:47;99473.15;;;13.62;37.51
37066;BME280;22981;43.080;25.550;2023-04-07T08:40:16;99474.34;;;13.69;37.81
37066;BME280;22981;43.080;25.550;2023-04-07T08:42:46;99480.38;;;13.62;37.93
37066;BME280;22981;43.080;25.550;2023-04-07T08:45:16;99476.77;;;13.18;38.52
37066;BME280;22981;43.080;25.550;2023-04-07T08:47:46;99468.33;;;12.65;39.47
37066;BME280;22981;43.080;25.550;2023-04-07T08:50:15;99473.92;;;12.19;40.55
37066;BME280;22981;43.080;25.550;2023-04-07T08:52:54;99471.89;;;12.24;41.05
37066;BME280;22981;43.080;25.550;2023-04-07T08:55:23;99472.52;;;12.38;41.04
37066;BME280;22981;43.080;25.550;2023-04-07T08:57:52;99475.27;;;12.52;41.17
37066;BME280;22981;43.080;25.550;2023-04-07T09:00:20;99485.39;;;12.59;40.93
37066;BME280;22981;43.080;25.550;2023-04-07T09:02:48;99475.50;;;12.97;40.57
37066;BME280;22981;43.080;25.550;2023-04-07T09:05:17;99474.52;;;13.24;40.56
37066;BME280;22981;43.080;25.550;2023-04-07T09:07:46;99479.09;;;13.24;40.42
37066;BME280;22981;43.080;25.550;2023-04-07T09:10:15;99478.25;;;13.12;40.73
37066;BME280;22981;43.080;25.550;2023-04-07T09:12:43;99480.25;;;13.28;40.52
37066;BME280;22981;43.080;25.550;2023-04-07T09:15:10;99472.20;;;13.42;40.01
37066;BME280;22981;43.080;25.550;2023-04-07T09:17:38;99478.99;;;13.73;39.86
37066;BME280;22981;43.080;25.550;2023-04-07T09:20:07;99472.97;;;14.12;39.36
37066;BME280;22981;43.080;25.550;2023-04-07T09:22:42;99477.73;;;14.38;38.79
37066;BME280;22981;43.080;25.550;2023-04-07T09:25:18;99476.75;;;14.59;38.42
37066;BME280;22981;43.080;25.550;2023-04-07T09:27:55;99481.32;;;14.75;38.30
37066;BME280;22981;43.080;25.550;2023-04-07T09:30:23;99475.37;;;14.92;37.28
37066;BME280;22981;43.080;25.550;2023-04-07T09:32:51;99473.42;;;14.88;37.13
37066;BME280;22981;43.080;25.550;2023-04-07T09:35:19;99469.05;;;14.84;36.68
37066;BME280;22981;43.080;25.550;2023-04-07T09:38:03;99480.33;;;14.64;37.03
37066;BME280;22981;43.080;25.550;2023-04-07T09:40:30;99468.81;;;14.35;37.08
37066;BME280;22981;43.080;25.550;2023-04-07T09:42:58;99472.12;;;14.40;37.13
37066;BME280;22981;43.080;25.550;2023-04-07T09:45:26;99472.25;;;14.64;37.64
37066;BME280;22981;43.080;25.550;2023-04-07T09:47:54;99465.66;;;14.91;37.41
37066;BME280;22981;43.080;25.550;2023-04-07T09:50:39;99462.98;;;14.94;37.31
37066;BME280;22981;43.080;25.550;2023-04-07T09:53:03;99468.69;;;14.95;37.26
37066;BME280;22981;43.080;25.550;2023-04-07T09:55:31;99459.27;;;14.78;37.23
37066;BME280;22981;43.080;25.550;2023-04-07T09:57:59;99466.71;;;14.54;37.48
37066;BME280;22981;43.080;25.550;2023-04-07T10:00:26;99463.03;;;14.29;37.74
37066;BME280;22981;43.080;25.550;2023-04-07T10:02:54;99472.69;;;14.11;37.86
37066;BME280;22981;43.080;25.550;2023-04-07T10:05:23;99476.08;;;13.89;38.01
37066;BME280;22981;43.080;25.550;2023-04-07T10:07:51;99473.36;;;14.03;38.40
37066;BME280;22981;43.080;25.550;2023-04-07T10:10:19;99473.59;;;14.31;38.46
37066;BME280;22981;43.080;25.550;2023-04-07T10:12:48;99476.34;;;14.50;38.12
37066;BME280;22981;43.080;25.550;2023-04-07T10:15:18;99481.09;;;14.45;38.37
37066;BME280;22981;43.080;25.550;2023-04-07T10:17:47;99477.03;;;14.28;38.50
37066;BME280;22981;43.080;25.550;2023-04-07T10:20:17;99477.60;;;14.14;38.74
37066;BME280;22981;43.080;25.550;2023-04-07T10:22:48;99477.06;;;14.00;38.89
37066;BME280;22981;43.080;25.550;2023-04-07T10:25:20;99475.48;;;13.87;38.79
37066;BME280;22981;43.080;25.550;2023-04-07T10:27:50;99477.31;;;13.70;38.61
37066;BME280;22981;43.080;25.550;2023-04-07T10:32:52;99476.67;;;13.37;38.84
37066;BME280;22981;43.080;25.550;2023-04-07T10:35:21;99483.34;;;13.22;39.16
37066;BME280;22981;43.080;25.550;2023-04-07T10:38:12;99479.59;;;13.12;39.18
37066;BME280;22981;43.080;25.550;2023-04-07T10:40:41;99476.02;;;13.09;39.57
37066;BME280;22981;43.080;25.550;2023-04-07T10:43:09;99482.14;;;13.18;39.71
37066;BME280;22981;43.080;25.550;2023-04-07T10:48:21;99476.03;;;12.97;39.94
37066;BME280;22981;43.080;25.550;2023-04-07T10:53:37;99478.44;;;12.96;39.88
37066;BME280;22981;43.080;25.550;2023-04-07T10:56:04;99481.77;;;13.24;39.41
37066;BME280;22981;43.080;25.550;2023-04-07T10:58:32;99474.42;;;13.74;39.31
37066;BME280;22981;43.080;25.550;2023-04-07T11:03:38;99479.52;;;13.87;39.21
37066;BME280;22981;43.080;25.550;2023-04-07T11:06:11;99480.83;;;14.13;39.18
37066;BME280;22981;43.080;25.550;2023-04-07T11:08:41;99486.06;;;14.06;38.98
37066;BME280;22981;43.080;25.550;2023-04-07T11:11:11;99487.09;;;13.88;39.27
37066;BME280;22981;43.080;25.550;2023-04-07T11:13:47;99485.41;;;13.84;39.43
37066;BME280;22981;43.080;25.550;2023-04-07T11:16:16;99491.53;;;13.82;39.48
37066;BME280;22981;43.080;25.550;2023-04-07T11:18:45;99487.59;;;13.59;39.28
37066;BME280;22981;43.080;25.550;2023-04-07T11:21:19;99487.19;;;13.26;39.45
37066;BME280;22981;43.080;25.550;2023-04-07T11:23:46;99490.81;;;13.09;39.83
37066;BME280;22981;43.080;25.550;2023-04-07T11:26:14;99486.14;;;13.04;39.88
37066;BME280;22981;43.080;25.550;2023-04-07T11:28:49;99489.81;;;13.12;39.91
37066;BME280;22981;43.080;25.550;2023-04-07T11:31:27;99486.52;;;13.22;39.86
37066;BME280;22981;43.080;25.550;2023-04-07T11:33:58;99499.45;;;13.34;39.76
37066;BME280;22981;43.080;25.550;2023-04-07T11:36:30;99498.58;;;13.57;39.36
37066;BME280;22981;43.080;25.550;2023-04-07T11:38:59;99505.38;;;13.48;39.33
37066;BME280;22981;43.080;25.550;2023-04-07T11:41:29;99501.27;;;13.31;39.71
37066;BME280;22981;43.080;25.550;2023-04-07T11:44:09;99501.98;;;13.15;39.89
37066;BME280;22981;43.080;25.550;2023-04-07T11:46:55;99502.44;;;13.12;39.90
37066;BME280;22981;43.080;25.550;2023-04-07T11:49:20;99507.18;;;13.07;39.87
37066;BME280;22981;43.080;25.550;2023-04-07T11:52:05;99507.00;;;12.88;40.31
37066;BME280;22981;43.080;25.550;2023-04-07T11:54:43;99505.16;;;12.67;40.32
37066;BME280;22981;43.080;25.550;2023-04-07T11:57:13;99510.11;;;12.49;40.81
37066;BME280;22981;43.080;25.550;2023-04-07T11:59:41;99512.67;;;12.44;40.88
37066;BME280;22981;43.080;25.550;2023-04-07T12:02:08;99513.61;;;12.38;40.95
37066;BME280;22981;43.080;25.550;2023-04-07T12:04:36;99515.77;;;12.39;41.14
37066;BME280;22981;43.080;25.550;2023-04-07T12:07:10;99516.17;;;12.45;41.02
37066;BME280;22981;43.080;25.550;2023-04-07T12:09:38;99520.31;;;12.38;40.85
37066;BME280;22981;43.080;25.550;2023-04-07T12:12:06;99522.35;;;12.34;41.07
37066;BME280;22981;43.080;25.550;2023-04-07T12:14:35;99520.20;;;12.24;41.25
37066;BME280;22981;43.080;25.550;2023-04-07T12:17:03;99519.55;;;12.19;41.18
37066;BME280;22981;43.080;25.550;2023-04-07T12:19:32;99518.73;;;12.19;41.30
37066;BME280;22981;43.080;25.550;2023-04-07T12:22:01;99522.31;;;12.22;41.37
37066;BME280;22981;43.080;25.550;2023-04-07T12:24:28;99515.44;;;12.26;41.45
37066;BME280;22981;43.080;25.550;2023-04-07T12:26:57;99529.67;;;12.26;41.75
37066;BME280;22981;43.080;25.550;2023-04-07T12:29:25;99533.09;;;12.24;41.76
37066;BME280;22981;43.080;25.550;2023-04-07T12:31:53;99533.94;;;12.25;41.86
37066;BME280;22981;43.080;25.550;2023-04-07T12:34:21;99532.44;;;12.29;41.75
37066;BME280;22981;43.080;25.550;2023-04-07T12:36:49;99542.94;;;12.31;41.89
37066;BME280;22981;43.080;25.550;2023-04-07T12:39:16;99539.20;;;12.32;41.96
37066;BME280;22981;43.080;25.550;2023-04-07T12:41:44;99535.62;;;12.28;41.90
37066;BME280;22981;43.080;25.550;2023-04-07T12:44:14;99538.51;;;12.36;41.83
37066;BME280;22981;43.080;25.550;2023-04-07T12:46:42;99531.59;;;12.38;42.04
37066;BME280;22981;43.080;25.550;2023-04-07T12:49:09;99530.81;;;12.40;41.94
37066;BME280;22981;43.080;25.550;2023-04-07T12:51:37;99533.38;;;12.35;42.01
37066;BME280;22981;43.080;25.550;2023-04-07T12:54:05;99534.39;;;12.22;42.04
37066;BME280;22981;43.080;25.550;2023-04-07T12:56:33;99534.70;;;12.14;42.19
37066;BME280;22981;43.080;25.550;2023-04-07T12:59:00;99542.02;;;12.07;42.40
37066;BME280;22981;43.080;25.550;2023-04-07T13:01:28;99538.92;;;12.00;42.38
37066;BME280;22981;43.080;25.550;2023-04-07T13:03:55;99546.83;;;11.95;42.35
37066;BME280;22981;43.080;25.550;2023-04-07T13:06:23;99546.53;;;11.85;42.38
37066;BME280;22981;43.080;25.550;2023-04-07T13:08:51;99548.81;;;11.82;42.56
37066;BME280;22981;43.080;25.550;2023-04-07T13:11:18;99556.81;;;11.70;42.66
37066;BME280;22981;43.080;25.550;2023-04-07T13:13:47;99549.51;;;11.59;42.80
37066;BME280;22981;43.080;25.550;2023-04-07T13:16:15;99551.44;;;11.51;42.97
37066;BME280;22981;43.080;25.550;2023-04-07T13:18:42;99552.05;;;11.44;43.10